createdAt,value
2022-08-23T05:26:19.638Z,100915.34
2022-08-23T05:28:50.608Z,100925.88
2022-08-23T05:31:22.284Z,100929.88
2022-08-23T05:33:53.589Z,100912.16
2022-08-23T05:36:23.200Z,100931.16
2022-08-23T05:38:53.757Z,100932.03
2022-08-23T05:41:27.208Z,100940.31
2022-08-23T05:44:07.880Z,100926.78
2022-08-23T05:46:37.334Z,100936.50
2022-08-23T05:49:07.503Z,100954.72
2022-08-23T05:51:38.054Z,100929.03
2022-08-23T05:54:11.044Z,100949.81
2022-08-23T05:56:43.252Z,100952.75
2022-08-23T05:59:17.154Z,100946.69
2022-08-23T06:01:46.760Z,100935.78
2022-08-23T06:04:19.842Z,100952.25
2022-08-23T06:06:49.683Z,100940.66
2022-08-23T06:09:20.429Z,100942.31
2022-08-23T06:11:52.106Z,100936.38
2022-08-23T06:14:21.599Z,100934.69
2022-08-23T06:16:55.743Z,100917.72
2022-08-23T06:19:25.922Z,100898.00
2022-08-23T06:21:55.145Z,100926.84
2022-08-23T06:24:24.513Z,100920.34
2022-08-23T06:26:56.171Z,100928.63
2022-08-23T06:29:25.340Z,100933.63
2022-08-23T06:31:55.019Z,100930.47
2022-08-23T06:34:27.275Z,100928.13
2022-08-23T06:36:58.540Z,100869.78
2022-08-23T06:39:34.431Z,100947.19
2022-08-23T06:42:34.836Z,100945.06
2022-08-23T06:44:59.909Z,100927.91
2022-08-23T06:47:29.231Z,100896.41
2022-08-23T06:49:58.856Z,100935.31
2022-08-23T06:52:29.069Z,100928.03
2022-08-23T06:54:58.369Z,100910.41
2022-08-23T06:57:29.155Z,100920.19
2022-08-23T06:59:58.334Z,100928.63
2022-08-23T07:02:28.257Z,100935.16
2022-08-23T07:04:57.855Z,100881.91
2022-08-23T07:07:41.292Z,100935.13
2022-08-23T07:10:14.333Z,100933.00
2022-08-23T07:12:45.277Z,100901.06
2022-08-23T07:15:14.595Z,100928.25
2022-08-23T07:17:43.745Z,100941.84
2022-08-23T07:20:13.008Z,100935.38
2022-08-23T07:22:42.341Z,100939.44
2022-08-23T07:25:11.779Z,100926.56
2022-08-23T07:27:41.197Z,100938.53
2022-08-23T07:30:13.548Z,100924.88
2022-08-23T07:32:42.821Z,100923.50
2022-08-23T07:35:12.100Z,100925.94
2022-08-23T07:37:41.369Z,100922.19
2022-08-23T07:40:15.863Z,100914.38
2022-08-23T07:42:49.994Z,100909.88
2022-08-23T07:45:22.286Z,100916.72
2022-08-23T07:47:52.712Z,100910.00
2022-08-23T07:50:22.996Z,100908.34
2022-08-23T07:52:52.312Z,100910.84
2022-08-23T07:55:21.829Z,100900.28
2022-08-23T07:57:51.264Z,100916.56
2022-08-23T08:00:23.364Z,100903.84
2022-08-23T08:02:52.728Z,100931.56
2022-08-23T08:05:26.369Z,100900.78
2022-08-23T08:07:55.704Z,100893.41
2022-08-23T08:10:25.002Z,100913.22
2022-08-23T08:12:54.204Z,100905.63
2022-08-23T08:15:26.085Z,100927.22
2022-08-23T08:17:55.621Z,100926.88
2022-08-23T08:20:28.648Z,100922.78
2022-08-23T08:22:59.176Z,100921.53
2022-08-23T08:25:31.431Z,100913.31
2022-08-23T08:28:01.001Z,100916.06
2022-08-23T08:30:33.078Z,100914.81
2022-08-23T08:33:02.491Z,100895.59
2022-08-23T08:35:31.771Z,100908.16
2022-08-23T08:38:01.061Z,100886.38
2022-08-23T08:40:35.943Z,100921.03
2022-08-23T08:43:23.544Z,100898.97
2022-08-23T08:46:07.324Z,100883.22
2022-08-23T08:48:43.598Z,100930.66
2022-08-23T08:51:29.886Z,100865.75
2022-08-23T08:54:01.354Z,100906.63
2022-08-23T08:56:34.290Z,100921.34
2022-08-23T08:59:08.361Z,100897.28
2022-08-23T09:01:41.923Z,100802.78
2022-08-23T09:04:17.077Z,100912.75
2022-08-23T09:06:58.976Z,100904.38
2022-08-23T09:09:51.568Z,100907.84
2022-08-23T09:12:28.270Z,100867.34
2022-08-23T09:15:16.977Z,100890.88
2022-08-23T09:17:53.548Z,100918.25
2022-08-23T09:20:32.987Z,100926.34
2022-08-23T09:23:09.053Z,100909.53
2022-08-23T09:25:38.819Z,100913.81
2022-08-23T09:28:08.533Z,100902.94
2022-08-23T09:30:54.879Z,100851.72
2022-08-23T09:33:27.215Z,100850.34
2022-08-23T09:36:09.234Z,100839.19
2022-08-23T09:38:41.675Z,100878.38
2022-08-23T09:41:20.829Z,100882.75
2022-08-23T09:43:50.420Z,100842.00
2022-08-23T09:46:28.841Z,100867.66
2022-08-23T09:49:01.888Z,100920.28
2022-08-23T09:51:35.299Z,100903.03
2022-08-23T09:54:12.491Z,100869.72
2022-08-23T09:56:45.602Z,100869.47
2022-08-23T09:59:40.337Z,100836.13
2022-08-23T10:02:17.311Z,100898.09
2022-08-23T10:04:57.943Z,100856.00
2022-08-23T10:07:34.693Z,100894.16
2022-08-23T10:10:29.856Z,100915.22
2022-08-23T10:13:01.027Z,100826.56
2022-08-23T10:15:42.921Z,100820.88
2022-08-23T10:18:21.411Z,100822.88
2022-08-23T10:21:03.598Z,100915.06
2022-08-23T10:23:49.697Z,100922.06
2022-08-23T10:26:25.993Z,100836.28
2022-08-23T10:29:22.344Z,100932.25
2022-08-23T10:31:59.411Z,100865.94
2022-08-23T10:34:47.129Z,100909.44
2022-08-23T10:37:37.291Z,100850.28
2022-08-23T10:40:13.800Z,100855.31
2022-08-23T10:42:53.762Z,100849.50
2022-08-23T10:45:28.026Z,100892.56
2022-08-23T10:48:15.596Z,100928.53
2022-08-23T10:50:55.883Z,100919.88
2022-08-23T10:53:36.697Z,100917.69
2022-08-23T10:56:08.584Z,100865.88
2022-08-23T10:58:44.171Z,100883.81
2022-08-23T11:01:21.948Z,100864.56
2022-08-23T11:04:02.069Z,100846.09
2022-08-23T11:06:46.278Z,100798.78
2022-08-23T11:09:50.217Z,100854.66
2022-08-23T11:12:29.693Z,100888.78
2022-08-23T11:15:15.351Z,100853.59
2022-08-23T11:17:58.195Z,100901.28
2022-08-23T11:21:04.096Z,100913.97
2022-08-23T11:23:45.723Z,100879.75
2022-08-23T11:27:07.121Z,100913.84
2022-08-23T11:29:43.623Z,100839.81
2022-08-23T11:32:47.278Z,100882.94
2022-08-23T11:35:43.028Z,100914.75
2022-08-23T11:38:14.730Z,100848.09
2022-08-23T11:41:00.864Z,100844.09
2022-08-23T11:43:42.512Z,100842.13
2022-08-23T11:46:32.424Z,100918.75
2022-08-23T11:49:31.260Z,100910.31
2022-08-23T11:52:13.858Z,100919.47
2022-08-23T11:55:09.025Z,100914.69
2022-08-23T11:58:07.141Z,100888.25
2022-08-23T12:01:00.090Z,100903.28
2022-08-23T12:03:34.623Z,100910.63
2022-08-23T12:06:13.322Z,100890.00
2022-08-23T12:08:54.401Z,100910.81
2022-08-23T12:11:25.715Z,100883.75
2022-08-23T12:14:01.639Z,100904.69
2022-08-23T12:16:41.925Z,100865.25
2022-08-23T12:19:27.042Z,100907.09
2022-08-23T12:21:58.394Z,100870.16
2022-08-23T12:24:34.627Z,100927.09
2022-08-23T12:27:32.910Z,100792.25
2022-08-23T12:30:07.536Z,100804.59
2022-08-23T12:32:58.783Z,100901.47
2022-08-23T12:35:37.180Z,100905.19
2022-08-23T12:38:12.630Z,100896.59
2022-08-23T12:40:58.253Z,100907.63
2022-08-23T12:43:33.478Z,100879.19
2022-08-23T12:46:14.672Z,100876.50
2022-08-23T12:48:49.315Z,100888.56
2022-08-23T12:51:32.465Z,100934.69
2022-08-23T12:54:15.652Z,100862.41
2022-08-23T12:56:48.522Z,100930.00
2022-08-23T12:59:35.529Z,100927.63
2022-08-23T13:02:09.977Z,100914.78
2022-08-23T13:04:44.830Z,100935.16
2022-08-23T13:07:17.743Z,100931.59
2022-08-23T13:09:53.799Z,100924.13
2022-08-23T13:12:25.400Z,100944.22
2022-08-23T13:15:01.886Z,100946.31
2022-08-23T13:17:37.296Z,100876.56
2022-08-23T13:20:22.063Z,100961.69
2022-08-23T13:23:01.302Z,100904.44
2022-08-23T13:25:33.898Z,100946.56
2022-08-23T13:28:05.758Z,100962.69
2022-08-23T13:30:36.846Z,100965.22
2022-08-23T13:33:26.292Z,100952.72
2022-08-23T13:36:13.353Z,100946.19
2022-08-23T13:38:44.340Z,100951.69
2022-08-23T13:41:28.891Z,100955.22
2022-08-23T13:43:58.323Z,100959.78
2022-08-23T13:46:30.319Z,100974.41
2022-08-23T13:49:02.551Z,100904.44
2022-08-23T13:51:38.844Z,100958.28
2022-08-23T13:54:10.377Z,100850.47
2022-08-23T13:56:44.847Z,100985.44
2022-08-23T13:59:31.100Z,100900.72
2022-08-23T14:02:03.444Z,100970.88
2022-08-23T14:04:32.759Z,100994.56
2022-08-23T14:07:03.492Z,100974.97
2022-08-23T14:09:34.060Z,100991.66
2022-08-23T14:12:06.718Z,100983.25
2022-08-23T14:14:39.382Z,100994.25
2022-08-23T14:17:10.710Z,100972.91
2022-08-23T14:22:36.772Z,100971.94
2022-08-23T14:25:06.876Z,101000.78
2022-08-23T14:27:36.369Z,100999.19
2022-08-23T14:30:06.490Z,100999.50
2022-08-23T14:32:35.911Z,100972.00
2022-08-23T14:35:15.019Z,100973.22
2022-08-23T14:38:03.396Z,100991.75
2022-08-23T14:40:36.197Z,100999.84
2022-08-23T14:43:06.588Z,101006.56
2022-08-23T14:45:36.050Z,101010.44
2022-08-23T14:48:05.839Z,101012.59
2022-08-23T14:50:39.015Z,101001.94
2022-08-23T14:53:10.523Z,101021.41
2022-08-23T14:55:39.877Z,100946.16
2022-08-23T14:58:09.153Z,101024.78
2022-08-23T15:00:39.401Z,100998.88
2022-08-23T15:03:20.488Z,101022.53
2022-08-23T15:05:49.725Z,101026.31
2022-08-23T15:08:20.819Z,101024.00
2022-08-23T15:13:14.291Z,101031.47
2022-08-23T15:13:54.926Z,100999.63
2022-08-23T15:16:25.495Z,101038.88
2022-08-23T15:18:55.708Z,101028.84
2022-08-23T15:21:25.253Z,101045.69
2022-08-23T15:23:56.066Z,101040.00
2022-08-23T15:26:27.498Z,101039.47
2022-08-23T15:28:56.631Z,101042.50
2022-08-23T15:31:26.794Z,101049.78
2022-08-23T15:33:56.065Z,101038.88
2022-08-23T15:36:25.330Z,101035.81
2022-08-23T15:38:56.602Z,101053.56
2022-08-23T15:41:26.089Z,101041.63
2022-08-23T15:43:55.622Z,100957.94
2022-08-23T15:46:26.329Z,101029.34
2022-08-23T15:48:59.031Z,101047.75
2022-08-23T15:51:28.476Z,101058.47
2022-08-23T15:53:59.824Z,101031.00
2022-08-23T15:56:38.358Z,101032.94
2022-08-23T15:59:10.316Z,101047.91
2022-08-23T16:01:39.773Z,101019.59
2022-08-23T16:04:14.861Z,101050.94
2022-08-23T16:06:45.627Z,100989.09
2022-08-23T16:10:22.067Z,101065.09
2022-08-23T16:14:32.979Z,101063.53
2022-08-23T16:21:10.660Z,101069.97
2022-08-23T16:23:40.586Z,101080.59
2022-08-23T16:26:12.422Z,101008.56
2022-08-23T16:28:49.506Z,101030.19
2022-08-23T16:31:19.542Z,100987.09
2022-08-23T16:33:49.822Z,101005.94
2022-08-23T16:36:21.201Z,101088.84
2022-08-23T16:38:51.505Z,101085.06
2022-08-23T16:41:20.633Z,100966.56
2022-08-23T16:43:49.997Z,101022.47
2022-08-23T16:46:19.941Z,101083.75
2022-08-23T16:48:49.181Z,100975.41
2022-08-23T16:51:20.132Z,101068.22
2022-08-23T16:54:01.528Z,101079.94
2022-08-23T16:56:33.961Z,101082.47
2022-08-23T16:59:03.618Z,101019.13
2022-08-23T17:01:44.292Z,101067.38
2022-08-23T17:04:13.529Z,100994.56
2022-08-23T17:06:44.757Z,101074.00
2022-08-23T17:09:14.497Z,100998.53
2022-08-23T17:11:45.819Z,101050.34
2022-08-23T17:14:15.155Z,100981.97
2022-08-23T17:16:45.764Z,101045.03
2022-08-23T17:19:17.416Z,101072.69
2022-08-23T17:21:48.130Z,101056.25
2022-08-23T17:24:17.380Z,101071.28
2022-08-23T17:26:46.633Z,101081.69
2022-08-23T17:29:16.884Z,100991.63
2022-08-23T17:31:49.601Z,101022.38
2022-08-23T17:34:19.402Z,101077.34
2022-08-23T17:36:53.253Z,100989.78
2022-08-23T17:39:24.929Z,101007.31
2022-08-23T17:41:54.501Z,101065.16
2022-08-23T17:44:23.885Z,101064.44
2022-08-23T17:46:53.471Z,100994.41
2022-08-23T17:49:22.714Z,101069.16
2022-08-23T17:51:53.451Z,101066.69
2022-08-23T17:54:22.607Z,101060.66
2022-08-23T17:56:53.215Z,101003.00
2022-08-23T17:59:23.074Z,101038.56
2022-08-23T18:01:52.603Z,101060.69
2022-08-23T18:04:21.901Z,100961.31
2022-08-23T18:06:52.946Z,101019.81
2022-08-23T18:09:22.297Z,101058.84
2022-08-23T18:11:51.955Z,101064.78
2022-08-23T18:14:21.137Z,101059.38
2022-08-23T18:16:50.807Z,100964.28
2022-08-23T18:19:20.049Z,101031.41
2022-08-23T18:21:50.055Z,101020.00
2022-08-23T18:24:21.595Z,101059.81
2022-08-23T18:27:08.218Z,101051.78
2022-08-23T18:29:39.455Z,101048.19
2022-08-23T18:32:10.661Z,100980.56
2022-08-23T18:34:40.624Z,101055.25
2022-08-23T18:37:09.836Z,100958.47
2022-08-23T18:39:40.474Z,101059.72
2022-08-23T18:42:10.024Z,100985.09
2022-08-23T18:44:39.219Z,101051.75
2022-08-23T18:47:09.317Z,101048.19
2022-08-23T18:49:39.143Z,101026.59
2022-08-23T18:52:08.642Z,100979.81
2022-08-23T18:54:40.225Z,100968.66
2022-08-23T18:57:15.900Z,101018.81
2022-08-23T18:59:45.571Z,101042.59
2022-08-23T19:02:14.892Z,101050.84
2022-08-23T19:04:44.133Z,101046.72
2022-08-23T19:07:13.354Z,101053.50
2022-08-23T19:09:44.105Z,101049.94
2022-08-23T19:12:13.369Z,100978.53
2022-08-23T19:14:42.541Z,101041.34
2022-08-23T19:17:11.803Z,100984.19
2022-08-23T19:19:41.029Z,100971.03
2022-08-23T19:22:10.206Z,101045.41
2022-08-23T19:24:39.333Z,101045.63
2022-08-23T19:27:10.514Z,100988.00
2022-08-23T19:29:39.702Z,100950.75
2022-08-23T19:32:09.099Z,101033.38
2022-08-23T19:34:38.301Z,101050.81
2022-08-23T19:37:09.083Z,101043.13
2022-08-23T19:39:49.894Z,100986.31
2022-08-23T19:42:20.939Z,100986.94
2022-08-23T19:44:50.134Z,100994.75
2022-08-23T19:47:21.144Z,100953.22
2022-08-23T19:49:51.898Z,101019.94
2022-08-23T19:52:21.096Z,101042.28
2022-08-23T19:54:50.715Z,101033.84
2022-08-23T19:57:21.459Z,101063.50
2022-08-23T19:59:50.710Z,100967.81
2022-08-23T20:02:19.963Z,100983.50
2022-08-23T20:04:49.178Z,100972.06
2022-08-23T20:07:18.366Z,100994.53
2022-08-23T20:09:47.550Z,100980.47
2022-08-23T20:12:17.770Z,100912.88
2022-08-23T20:14:50.001Z,100953.09
2022-08-23T20:17:19.121Z,101029.16
2022-08-23T20:19:48.727Z,101034.78
2022-08-23T20:22:35.526Z,100927.84
2022-08-23T20:25:05.947Z,101006.25
2022-08-23T20:27:37.411Z,100999.84
2022-08-23T20:30:10.191Z,100947.91
2022-08-23T20:32:39.782Z,101032.38
2022-08-23T20:35:12.329Z,101005.78
2022-08-23T20:37:41.643Z,100964.69
2022-08-23T20:40:12.248Z,100967.75
2022-08-23T20:42:41.549Z,100981.25
2022-08-23T20:45:13.035Z,101045.63
2022-08-23T20:47:42.254Z,100958.34
2022-08-23T20:50:11.578Z,101039.94
2022-08-23T20:52:40.776Z,100979.66
2022-08-23T20:55:11.051Z,101059.56
2022-08-23T20:57:40.378Z,100967.75
2022-08-23T21:00:13.179Z,100975.31
2022-08-23T21:02:42.373Z,101049.91
2022-08-23T21:05:11.827Z,101044.66
2022-08-23T21:07:41.101Z,100982.41
2022-08-23T21:10:11.793Z,100933.31
2022-08-23T21:12:41.032Z,100974.25
2022-08-23T21:15:13.036Z,100965.97
2022-08-23T21:17:42.261Z,100931.66
2022-08-23T21:20:12.137Z,101035.88
2022-08-23T21:22:41.322Z,100959.91
2022-08-23T21:25:11.210Z,100935.13
2022-08-23T21:27:40.495Z,100929.66
2022-08-23T21:30:12.919Z,101041.31
2022-08-23T21:32:42.088Z,101009.63
2022-08-23T21:35:14.201Z,101013.75
2022-08-23T21:37:43.366Z,100942.94
2022-08-23T21:40:14.000Z,100946.13
2022-08-23T21:42:43.255Z,100956.41
2022-08-23T21:45:14.009Z,101044.16
2022-08-23T21:47:43.214Z,101045.13
2022-08-23T21:50:12.821Z,101043.47
2022-08-23T21:52:42.382Z,101040.03
2022-08-23T21:55:12.405Z,101039.28
2022-08-23T21:57:42.934Z,101017.75
2022-08-23T22:00:18.014Z,100971.44
2022-08-23T22:02:47.976Z,101028.47
2022-08-23T22:05:17.325Z,101039.94
2022-08-23T22:07:47.582Z,101001.25
2022-08-23T22:10:16.993Z,100976.84
2022-08-23T22:12:47.674Z,100993.47
2022-08-23T22:15:19.111Z,101056.03
2022-08-23T22:17:48.294Z,100975.56
2022-08-23T22:20:17.681Z,100979.09
2022-08-23T22:22:48.010Z,101038.94
2022-08-23T22:25:17.758Z,101053.78
2022-08-23T22:27:47.978Z,100962.78
2022-08-23T22:30:19.554Z,101040.22
2022-08-23T22:32:48.732Z,101009.91
2022-08-23T22:35:18.636Z,100989.41
2022-08-23T22:38:10.278Z,100969.31
2022-08-23T22:40:37.204Z,100934.06
2022-08-23T22:43:06.383Z,100988.56
2022-08-23T22:45:37.079Z,101063.22
2022-08-23T22:48:06.578Z,100975.66
2022-08-23T22:50:35.778Z,101048.66
2022-08-23T22:53:04.971Z,101025.13
2022-08-23T22:55:34.130Z,100979.41
2022-08-23T22:58:03.595Z,101013.50
2022-08-23T23:00:32.887Z,101010.03
2022-08-23T23:03:03.825Z,100992.47
2022-08-23T23:05:35.431Z,100979.50
2022-08-23T23:08:22.006Z,100993.31
2022-08-23T23:10:51.192Z,101076.06
2022-08-23T23:13:20.384Z,101074.31
2022-08-23T23:15:50.581Z,101056.03
2022-08-23T23:18:21.527Z,101038.50
2022-08-23T23:20:50.626Z,101058.25
2022-08-23T23:23:22.335Z,101001.94
2022-08-23T23:25:52.446Z,101011.94
2022-08-23T23:28:22.118Z,100992.84
2022-08-23T23:30:53.319Z,101072.50
2022-08-23T23:33:24.592Z,101073.41
2022-08-23T23:35:53.690Z,101069.88
2022-08-23T23:38:22.872Z,101061.47
2022-08-23T23:40:52.440Z,101073.41
2022-08-23T23:43:21.658Z,101084.03
2022-08-23T23:45:50.926Z,101073.50
2022-08-23T23:48:20.386Z,101067.31
2022-08-23T23:50:51.118Z,101072.56
2022-08-23T23:53:20.699Z,101036.81
2022-08-23T23:55:50.017Z,100972.81
2022-08-23T23:58:19.269Z,101005.59
